Time;durP1;ratioP1;P1;durP2;ratioP2;P2;SDS_P1;SDS_P2;PMS_P1;PMS_P2;Temp;Humidity;BMP_temperature;BMP_pressure;BME280_temperature;BME280_humidity;BME280_pressure;Samples;Min_cycle;Max_cycle;Signal;HPM_P1;HPM_P2
2021/11/25 07:18:18;;;;;;;28.73;16.48;;;;;;;1.83;70.28;98376.91;2618435;54;20082;-72
2021/11/25 07:20:47;;;;;;;24.73;15.55;;;;;;;1.82;70.44;98388.31;2619063;39;20445;-72
2021/11/25 07:23:18;;;;;;;30.77;17.17;;;;;;;1.90;70.66;98388.38;2619352;54;20039;-72
2021/11/25 07:25:47;;;;;;;31.02;18.15;;;;;;;1.93;70.69;98387.28;2619441;54;20042;-72
2021/11/25 07:28:17;;;;;;;28.35;16.88;;;;;;;1.99;70.24;98387.50;2619572;54;20038;-73
2021/11/25 07:30:47;;;;;;;26.83;16.38;;;;;;;1.93;69.71;98382.88;2619120;54;20030;-72
2021/11/25 07:33:19;;;;;;;30.83;18.67;;;;;;;1.92;70.46;98383.88;2619266;54;20122;-72
2021/11/25 07:35:49;;;;;;;29.42;17.52;;;;;;;1.98;70.10;98375.44;2618339;50;20077;-72
2021/11/25 07:38:19;;;;;;;27.73;17.50;;;;;;;2.06;70.35;98372.09;2619185;54;20026;-72
2021/11/25 07:40:49;;;;;;;31.08;17.95;;;;;;;2.09;69.88;98376.19;2618998;54;20022;-73
2021/11/25 07:43:18;;;;;;;29.73;17.25;;;;;;;2.07;69.83;98375.50;2619219;54;20026;-73
2021/11/25 07:45:48;;;;;;;25.98;16.90;;;;;;;2.09;70.11;98379.63;2618147;54;20034;-73
2021/11/25 07:48:21;;;;;;;27.42;16.30;;;;;;;2.20;70.03;98383.78;2617638;47;20042;-72
2021/11/25 07:50:50;;;;;;;29.25;16.50;;;;;;;2.22;69.82;98389.69;2617523;47;20075;-72
2021/11/25 07:53:20;;;;;;;28.13;17.40;;;;;;;2.13;69.41;98385.34;2617898;54;20584;-73
2021/11/25 07:55:50;;;;;;;24.23;16.17;;;;;;;2.09;69.67;98392.66;2617559;54;20033;-72
2021/11/25 07:58:20;;;;;;;25.98;16.13;;;;;;;2.10;69.44;98393.47;2618051;47;20034;-72
2021/11/25 08:00:50;;;;;;;25.75;14.93;;;;;;;2.18;69.75;98388.34;2618540;54;20057;-72
2021/11/25 08:03:22;;;;;;;24.55;15.40;;;;;;;2.30;69.87;98386.31;2618680;54;20026;-72
2021/11/25 08:05:53;;;;;;;23.33;14.02;;;;;;;2.28;69.09;98390.84;2618696;54;20034;-72
2021/11/25 08:08:22;;;;;;;23.55;14.90;;;;;;;2.23;68.71;98380.88;2618810;54;20035;-73
2021/11/25 08:10:52;;;;;;;24.25;14.75;;;;;;;2.18;68.77;98383.13;2618468;54;20071;-71
2021/11/25 08:13:21;;;;;;;23.98;14.98;;;;;;;2.25;69.11;98385.97;2618493;47;20103;-72
2021/11/25 08:15:51;;;;;;;26.02;15.68;;;;;;;2.34;69.31;98396.31;2618829;39;20419;-72
2021/11/25 08:18:23;;;;;;;25.83;16.35;;;;;;;2.38;68.93;98392.41;2618800;54;20035;-73
2021/11/25 08:20:53;;;;;;;27.90;17.10;;;;;;;2.44;69.22;98391.81;2619303;47;20038;-72
2021/11/25 08:23:23;;;;;;;26.55;17.15;;;;;;;2.50;69.18;98394.81;2624070;54;20035;-72
2021/11/25 08:25:52;;;;;;;29.55;17.30;;;;;;;2.45;68.34;98387.44;2624494;54;20038;-73
2021/11/25 08:28:24;;;;;;;35.35;17.70;;;;;;;2.36;68.55;98385.69;2621313;54;20561;-72
2021/11/25 08:30:54;;;;;;;27.25;16.73;;;;;;;2.43;68.75;98382.34;2622083;39;20399;-72
2021/11/25 08:33:26;;;;;;;27.33;17.23;;;;;;;2.47;68.62;98386.28;2620533;54;20039;-73
2021/11/25 08:35:56;;;;;;;25.02;16.08;;;;;;;2.42;68.42;98390.34;2619679;54;20625;-72
2021/11/25 08:38:28;;;;;;;26.75;16.92;;;;;;;2.40;68.84;98390.47;2619807;54;20057;-70
2021/11/25 08:40:58;;;;;;;35.33;17.88;;;;;;;2.43;68.62;98386.75;2619415;54;20090;-71
2021/11/25 08:43:28;;;;;;;27.70;17.58;;;;;;;2.44;68.71;98383.16;2619523;54;20034;-71
2021/11/25 08:45:58;;;;;;;29.23;18.25;;;;;;;2.38;68.27;98383.78;2619629;39;20430;-71
2021/11/25 08:48:30;;;;;;;30.25;18.80;;;;;;;2.42;68.94;98385.94;2618861;54;20039;-71
2021/11/25 08:51:00;;;;;;;26.70;17.90;;;;;;;2.48;68.69;98397.53;2618448;54;20039;-73
2021/11/25 08:53:29;;;;;;;30.75;19.45;;;;;;;2.53;68.67;98412.75;2619039;54;20039;-71
2021/11/25 08:55:59;;;;;;;32.50;19.60;;;;;;;2.59;68.58;98418.19;2619561;54;20027;-71
2021/11/25 08:58:30;;;;;;;31.08;19.33;;;;;;;2.57;68.42;98424.53;2619187;54;20033;-71
2021/11/25 09:00:59;;;;;;;30.38;17.85;;;;;;;2.55;68.63;98416.84;2618716;47;20037;-71
2021/11/25 09:03:35;;;;;;;27.95;18.20;;;;;;;2.51;68.05;98422.53;2619275;54;20057;-71
2021/11/25 09:06:05;;;;;;;33.28;17.55;;;;;;;2.46;68.24;98413.34;2618402;47;20034;-71
2021/11/25 09:08:35;;;;;;;28.85;18.23;;;;;;;2.51;68.83;98405.06;2619797;54;20612;-71
2021/11/25 09:11:04;;;;;;;30.20;18.08;;;;;;;2.57;68.52;98394.06;2618192;46;20099;-71
2021/11/25 09:13:35;;;;;;;25.42;17.20;;;;;;;2.30;68.51;98381.91;2619021;54;20782;-71
2021/11/25 09:16:05;;;;;;;26.48;17.30;;;;;;;2.38;68.72;98389.00;2618999;54;20565;-71
2021/11/25 09:18:37;;;;;;;29.33;18.35;;;;;;;2.47;68.51;98394.13;2620727;54;20035;-71
2021/11/25 09:21:07;;;;;;;30.90;17.92;;;;;;;2.50;68.58;98400.84;2622359;54;20558;-71
2021/11/25 09:23:39;;;;;;;25.52;16.95;;;;;;;2.35;68.20;98397.13;2620276;54;20022;-70
2021/11/25 09:26:08;;;;;;;24.77;15.07;;;;;;;2.35;68.13;98392.72;2619169;54;20034;-71
2021/11/25 09:28:38;;;;;;;28.20;16.55;;;;;;;2.47;68.27;98385.47;2618367;47;20085;-71
2021/11/25 09:31:13;;;;;;;25.17;16.52;;;;;;;2.54;68.12;98385.69;2621568;54;20183;-71
2021/11/25 09:33:46;;;;;;;27.33;16.52;;;;;;;2.55;68.18;98379.50;2623137;54;20038;-72
2021/11/25 09:36:15;;;;;;;26.45;17.23;;;;;;;2.56;68.38;98368.91;2624860;54;20035;-71
2021/11/25 09:38:45;;;;;;;28.20;18.48;;;;;;;2.57;68.28;98373.19;2626331;39;20577;-71
2021/11/25 09:41:15;;;;;;;27.08;16.98;;;;;;;2.59;68.08;98373.00;2625152;54;20041;-71
2021/11/25 09:43:45;;;;;;;25.65;17.23;;;;;;;2.53;68.44;98368.38;2625479;54;20541;-71
2021/11/25 09:46:17;;;;;;;27.23;16.83;;;;;;;2.53;68.61;98366.63;2624399;54;20065;-72
2021/11/25 09:48:50;;;;;;;30.20;18.35;;;;;;;2.56;68.35;98362.88;2624008;54;20027;-72
2021/11/25 09:51:22;;;;;;;29.42;17.85;;;;;;;2.63;68.33;98364.72;2627288;39;20321;-70
2021/11/25 09:53:52;;;;;;;30.92;18.73;;;;;;;2.65;67.82;98367.16;2625923;54;20038;-70
2021/11/25 09:56:22;;;;;;;26.33;17.63;;;;;;;2.64;67.77;98358.53;2623097;39;20520;-70
2021/11/25 09:58:53;;;;;;;28.40;18.23;;;;;;;2.57;67.56;98361.88;2624521;54;20031;-70
2021/11/25 10:01:25;;;;;;;24.85;16.17;;;;;;;2.63;67.94;98366.50;2625475;39;20460;-71
2021/11/25 10:03:57;;;;;;;30.45;18.35;;;;;;;2.69;67.69;98365.88;2624776;54;20039;-71
2021/11/25 10:06:32;;;;;;;26.55;18.23;;;;;;;2.72;67.24;98361.19;2622537;54;20033;-70
2021/11/25 10:09:02;;;;;;;31.48;17.88;;;;;;;2.57;67.10;98370.56;2620921;54;20038;-70
2021/11/25 10:11:34;;;;;;;25.40;18.23;;;;;;;2.61;66.84;98366.69;2621671;54;20034;-71
2021/11/25 10:14:07;;;;;;;26.95;16.98;;;;;;;2.54;66.82;98368.25;2619422;47;20031;-70
2021/11/25 10:16:40;;;;;;;28.02;17.33;;;;;;;2.38;67.46;98355.91;2619393;54;20034;-71
2021/11/25 10:19:17;;;;;;;27.65;17.42;;;;;;;2.46;68.06;98355.97;2618577;54;20027;-70
2021/11/25 10:21:56;;;;;;;27.08;17.65;;;;;;;2.58;67.92;98356.53;2618010;54;20800;-71
2021/11/25 10:24:33;;;;;;;26.90;17.98;;;;;;;2.60;67.48;98356.38;2618406;47;20029;-70
2021/11/25 10:27:15;;;;;;;26.65;17.55;;;;;;;2.67;67.50;98352.19;2618496;47;20038;-70
2021/11/25 10:29:45;;;;;;;25.85;17.38;;;;;;;2.67;67.12;98345.16;2618672;54;20058;-70
2021/11/25 10:32:21;;;;;;;27.40;18.45;;;;;;;2.74;67.61;98345.38;2618622;54;20038;-70
2021/11/25 10:35:08;;;;;;;27.40;18.20;;;;;;;2.71;66.89;98345.69;2618899;54;20039;-70
2021/11/25 10:37:51;;;;;;;26.65;16.88;;;;;;;2.63;67.01;98354.28;2618908;54;20058;-70
2021/11/25 10:40:27;;;;;;;28.50;17.77;;;;;;;2.60;66.93;98356.38;2618787;54;20027;-70
2021/11/25 10:42:56;;;;;;;28.58;17.88;;;;;;;2.60;67.34;98364.19;2618641;54;20031;-70
2021/11/25 10:45:26;;;;;;;28.67;18.95;;;;;;;2.67;67.04;98363.44;2618666;39;20474;-71
2021/11/25 10:48:00;;;;;;;25.83;17.77;;;;;;;2.63;67.07;98369.94;2618782;54;20081;-70
2021/11/25 10:50:34;;;;;;;27.48;17.23;;;;;;;2.60;66.94;98367.63;2618666;54;20054;-70
2021/11/25 10:53:05;;;;;;;;;;;;;;;2.51;66.75;98368.53;2618443;54;20073;-70
2021/11/25 10:55:35;;;;;;;32.00;18.17;;;;;;;2.55;67.38;98371.69;2618878;54;20418;-70
2021/11/25 10:58:07;;;;;;;28.92;18.17;;;;;;;2.52;67.56;98377.19;2617245;47;20041;-71
2021/11/25 11:00:39;;;;;;;28.27;16.33;;;;;;;2.48;67.78;98369.66;2618841;54;20031;-69
2021/11/25 11:03:11;;;;;;;27.13;17.52;;;;;;;2.52;67.47;98377.19;2621568;54;20026;-70
2021/11/25 11:05:52;;;;;;;25.08;17.08;;;;;;;2.51;67.85;98373.75;2621867;54;20027;-71
2021/11/25 11:08:22;;;;;;;28.63;19.70;;;;;;;2.60;67.92;98374.63;2617485;47;20147;-71
2021/11/25 11:10:54;;;;;;;26.92;18.40;;;;;;;2.74;66.71;98374.09;2618324;54;20031;-71
2021/11/25 11:13:35;;;;;;;26.52;18.42;;;;;;;2.71;67.06;98374.41;2618470;54;20030;-71
2021/11/25 11:16:25;;;;;;;26.65;18.55;;;;;;;2.52;67.14;98372.78;2618432;54;20037;-71
2021/11/25 11:19:00;;;;;;;28.33;18.38;;;;;;;2.51;66.91;98373.75;2618634;54;20042;-72
2021/11/25 11:21:37;;;;;;;25.20;17.15;;;;;;;2.57;67.16;98367.09;2617837;47;20034;-71
2021/11/25 11:24:09;;;;;;;27.63;18.75;;;;;;;2.54;67.40;98368.25;2618530;54;20042;-70
2021/11/25 11:26:41;;;;;;;28.08;17.25;;;;;;;2.61;67.01;98368.44;2617309;47;20565;-70
2021/11/25 11:29:13;;;;;;;26.42;17.58;;;;;;;2.61;67.33;98364.06;2617728;47;20061;-71
2021/11/25 11:31:44;;;;;;;28.58;18.60;;;;;;;2.78;67.06;98372.81;2618338;54;20102;-70
2021/11/25 11:34:15;;;;;;;26.25;17.77;;;;;;;2.85;67.12;98363.38;2619023;54;20038;-70
2021/11/25 11:36:51;;;;;;;28.88;19.58;;;;;;;2.92;66.30;98379.25;2619555;54;20045;-71
2021/11/25 11:39:24;;;;;;;24.92;17.10;;;;;;;2.68;66.41;98375.50;2619331;39;20489;-70
2021/11/25 11:41:57;;;;;;;26.48;17.02;;;;;;;2.71;66.45;98361.34;2619476;54;20038;-71
2021/11/25 11:44:27;;;;;;;27.02;17.77;;;;;;;2.62;66.41;98360.47;2619101;39;20423;-71
2021/11/25 11:46:59;;;;;;;27.52;17.83;;;;;;;2.70;65.99;98357.09;2618571;51;20022;-71
2021/11/25 11:49:29;;;;;;;26.77;18.85;;;;;;;2.74;66.14;98361.06;2618998;54;20033;-71
2021/11/25 11:52:07;;;;;;;23.23;17.00;;;;;;;2.72;66.31;98365.59;2619717;54;20026;-72
2021/11/25 11:54:43;;;;;;;26.00;17.83;;;;;;;2.70;66.16;98357.94;2619136;54;20041;-71
2021/11/25 11:57:38;;;;;;;26.70;18.02;;;;;;;2.73;65.95;98348.94;2617741;47;20031;-71
2021/11/25 12:00:26;;;;;;;23.95;16.67;;;;;;;2.70;66.38;98342.25;2619186;54;20042;-71
2021/11/25 12:02:57;;;;;;;26.88;18.13;;;;;;;2.77;66.42;98347.66;2619082;54;20026;-71
2021/11/25 12:05:46;;;;;;;27.40;19.42;;;;;;;2.80;66.66;98342.16;2619125;54;20037;-71
2021/11/25 12:08:43;;;;;;;25.30;17.15;;;;;;;2.60;66.12;98346.75;2618453;47;20039;-71
2021/11/25 12:11:21;;;;;;;25.63;18.17;;;;;;;2.68;66.76;98346.81;2618958;39;20133;-72
2021/11/25 12:14:04;;;;;;;28.67;18.85;;;;;;;2.80;66.14;98347.38;2619047;54;20038;-72
2021/11/25 12:16:36;;;;;;;25.38;17.80;;;;;;;2.80;66.35;98349.97;2618925;54;20038;-71
2021/11/25 12:19:11;;;;;;;29.13;18.15;;;;;;;2.63;66.38;98349.06;2618995;54;20054;-72
2021/11/25 12:21:44;;;;;;;27.75;18.52;;;;;;;2.73;66.06;98338.50;2620080;54;20047;-71
2021/11/25 12:24:27;;;;;;;30.25;18.92;;;;;;;2.75;66.33;98339.19;2618305;54;20019;-71
2021/11/25 12:27:21;;;;;;;26.27;17.80;;;;;;;2.76;66.19;98324.34;2619193;54;20038;-71
2021/11/25 12:30:10;;;;;;;25.02;17.08;;;;;;;2.71;66.44;98336.06;2619424;54;20034;-71
2021/11/25 12:32:58;;;;;;;26.10;17.13;;;;;;;2.73;66.66;98333.28;2619835;39;20455;-71
2021/11/25 12:35:48;;;;;;;24.52;17.20;;;;;;;2.84;65.99;98325.19;2618652;47;20026;-72
2021/11/25 12:38:21;;;;;;;23.77;17.00;;;;;;;2.93;65.88;98313.81;2620461;39;20527;-71
2021/11/25 12:41:00;;;;;;;26.30;18.05;;;;;;;2.91;65.70;98314.97;2619738;54;20038;-71
2021/11/25 12:43:34;;;;;;;23.60;16.60;;;;;;;2.93;66.05;98316.44;2620079;54;20526;-70
2021/11/25 12:46:10;;;;;;;25.10;16.67;;;;;;;2.92;65.68;98306.97;2618860;54;20035;-71
2021/11/25 12:48:43;;;;;;;31.83;21.02;;;;;;;3.01;65.54;98310.44;2619580;39;20522;-72
2021/11/25 12:51:16;;;;;;;27.63;18.35;;;;;;;3.04;65.72;98311.94;2618743;47;20022;-72
2021/11/25 12:53:51;;;;;;;26.80;17.98;;;;;;;3.10;65.36;98312.13;2620467;54;20031;-71
2021/11/25 12:56:28;;;;;;;25.52;18.15;;;;;;;3.06;65.24;98307.34;2620039;54;20030;-72
2021/11/25 12:59:00;;;;;;;25.88;17.20;;;;;;;3.09;65.34;98304.44;2619503;54;20026;-70
2021/11/25 13:01:34;;;;;;;25.45;17.80;;;;;;;2.96;64.98;98305.69;2618450;54;20034;-71
2021/11/25 13:04:11;;;;;;;26.55;17.15;;;;;;;2.76;65.59;98300.84;2619418;54;20099;-70
2021/11/25 13:06:43;;;;;;;25.13;18.25;;;;;;;2.71;65.97;98302.13;2622599;54;20035;-72
2021/11/25 13:09:15;;;;;;;23.75;16.60;;;;;;;2.81;65.68;98301.19;2622277;54;20565;-71
2021/11/25 13:11:48;;;;;;;25.15;17.73;;;;;;;2.84;65.80;98288.66;2620355;54;20029;-71
2021/11/25 13:14:20;;;;;;;25.88;17.30;;;;;;;2.91;65.68;98291.47;2619614;39;20461;-70
2021/11/25 13:16:53;;;;;;;27.67;18.33;;;;;;;2.96;65.90;98294.41;2619063;54;20042;-71
2021/11/25 13:19:25;;;;;;;33.33;22.17;;;;;;;3.08;65.66;98287.94;2618794;54;20026;-71
2021/11/25 13:21:57;;;;;;;24.00;16.98;;;;;;;2.97;65.15;98280.38;2618743;54;20041;-71
2021/11/25 13:24:29;;;;;;;27.77;18.65;;;;;;;3.00;65.63;98280.06;2617912;47;20034;-71
2021/11/25 13:27:05;;;;;;;27.92;19.35;;;;;;;3.08;65.46;98272.28;2618581;54;20050;-71
2021/11/25 13:29:47;;;;;;;24.63;17.10;;;;;;;3.05;65.00;98269.97;2619142;54;20038;-71
2021/11/25 13:32:22;;;;;;;27.60;17.33;;;;;;;3.03;65.32;98265.91;2619116;54;20042;-71
2021/11/25 13:34:53;;;;;;;24.77;17.10;;;;;;;2.99;64.76;98278.44;2618751;54;20565;-71
2021/11/25 13:37:24;;;;;;;25.30;17.50;;;;;;;2.87;65.01;98269.25;2619979;54;20030;-70
2021/11/25 13:39:58;;;;;;;24.13;16.75;;;;;;;2.85;65.46;98276.41;2621290;54;20037;-72
2021/11/25 13:42:33;;;;;;;25.20;16.05;;;;;;;2.83;65.08;98273.16;2621706;54;20039;-72
2021/11/25 13:45:04;;;;;;;26.42;16.23;;;;;;;2.86;65.63;98267.63;2621528;54;20034;-72
2021/11/25 13:47:37;;;;;;;23.63;16.17;;;;;;;2.90;65.73;98268.97;2619063;54;20086;-72
2021/11/25 13:50:10;;;;;;;28.00;17.20;;;;;;;2.95;65.57;98272.72;2620960;47;20042;-71
2021/11/25 13:52:42;;;;;;;29.15;18.92;;;;;;;2.95;65.80;98287.56;2620173;47;20035;-72
2021/11/25 13:55:14;;;;;;;27.40;17.98;;;;;;;2.98;65.59;98290.69;2620936;54;20045;-72
2021/11/25 13:57:48;;;;;;;26.27;17.45;;;;;;;2.96;65.48;98282.19;2620624;54;20042;-72
2021/11/25 14:00:20;;;;;;;24.70;17.55;;;;;;;2.99;65.36;98286.28;2620905;54;20584;-71
2021/11/25 14:02:50;;;;;;;27.95;18.55;;;;;;;2.91;65.42;98276.63;2620439;54;20038;-72
2021/11/25 14:05:20;;;;;;;24.13;16.92;;;;;;;3.02;65.40;98277.31;2619037;54;20042;-73
2021/11/25 14:07:50;;;;;;;23.15;16.40;;;;;;;3.07;64.85;98275.88;2618951;54;20031;-72
2021/11/25 14:10:21;;;;;;;21.42;14.35;;;;;;;2.73;64.69;98284.53;2619112;54;20030;-71
2021/11/25 14:12:56;;;;;;;23.20;16.20;;;;;;;2.61;65.14;98285.78;2619429;39;20450;-71
2021/11/25 14:15:29;;;;;;;22.67;15.63;;;;;;;2.68;65.64;98283.34;2618344;47;20026;-71
2021/11/25 14:18:01;;;;;;;23.13;16.42;;;;;;;2.85;65.96;98281.63;2620985;54;20030;-72
2021/11/25 14:20:33;;;;;;;22.73;15.75;;;;;;;3.00;65.01;98289.72;2620170;48;20030;-73
2021/11/25 14:23:15;;;;;;;18.88;13.90;;;;;;;2.96;64.79;98273.53;2620307;47;20030;-72
2021/11/25 14:25:46;;;;;;;21.55;14.82;;;;;;;2.89;64.93;98289.00;2618677;47;20034;-71
2021/11/25 14:31:11;;;;;;;22.00;14.32;;;;;;;2.80;64.37;98289.94;2618006;47;20035;-71
2021/11/25 16:23:31;;;;;;;21.58;13.80;;;;;;;3.06;64.87;98338.69;2601099;46;20061;-70
2021/11/25 16:26:02;;;;;;;24.13;15.23;;;;;;;3.10;64.70;98337.41;2618556;47;20034;-69
2021/11/25 16:28:31;;;;;;;25.17;16.50;;;;;;;3.16;64.99;98336.78;2620240;54;20022;-70
2021/11/25 16:31:03;;;;;;;28.55;17.27;;;;;;;3.28;64.92;98337.31;2622162;54;20031;-69
2021/11/25 16:33:33;;;;;;;22.55;15.82;;;;;;;3.17;64.76;98343.63;2620429;54;20038;-69
2021/11/25 16:36:03;;;;;;;22.70;15.32;;;;;;;3.13;64.83;98347.53;2619076;47;20154;-69
2021/11/25 16:38:36;;;;;;;22.98;15.13;;;;;;;3.22;65.24;98339.59;2619205;54;20034;-70
2021/11/25 16:41:06;;;;;;;24.63;16.90;;;;;;;3.32;65.10;98349.91;2618504;47;20045;-69
2021/11/25 16:43:36;;;;;;;20.60;13.90;;;;;;;3.36;64.37;98351.25;2618400;47;20023;-71
2021/11/25 16:46:06;;;;;;;22.70;15.13;;;;;;;3.35;64.43;98351.41;2620240;54;20055;-70
2021/11/25 16:48:37;;;;;;;21.50;13.98;;;;;;;3.44;64.35;98340.81;2620448;54;20038;-71
2021/11/25 16:51:12;;;;;;;24.83;16.80;;;;;;;3.53;64.14;98343.44;2619812;54;20022;-69
2021/11/25 16:53:48;;;;;;;20.42;14.40;;;;;;;3.48;64.07;98333.47;2619360;39;20449;-69
2021/11/25 16:56:18;;;;;;;21.60;15.13;;;;;;;3.46;64.19;98327.56;2618530;54;20034;-70
2021/11/25 16:58:48;;;;;;;22.45;15.40;;;;;;;3.45;64.51;98326.75;2618260;47;20267;-70
2021/11/25 17:01:18;;;;;;;21.02;15.38;;;;;;;3.48;64.14;98329.06;2617909;47;20038;-70
2021/11/25 17:03:47;;;;;;;19.60;13.60;;;;;;;3.39;64.23;98327.41;2618866;54;20034;-71
2021/11/25 17:06:17;;;;;;;21.25;13.63;;;;;;;3.40;64.24;98315.16;2619866;46;20049;-69
2021/11/25 17:08:50;;;;;;;19.88;14.35;;;;;;;3.47;64.29;98318.78;2619839;47;20037;-70
2021/11/25 17:11:19;;;;;;;19.42;13.80;;;;;;;3.50;63.75;98309.78;2621687;47;20018;-69
2021/11/25 17:13:50;;;;;;;21.98;15.05;;;;;;;3.52;63.67;98318.31;2621927;47;20037;-69
2021/11/25 17:16:19;;;;;;;26.25;16.33;;;;;;;3.39;63.95;98310.91;2622371;54;20030;-70
2021/11/25 17:18:49;;;;;;;23.15;16.00;;;;;;;3.37;64.36;98325.94;2620519;54;20045;-68
2021/11/25 17:21:19;;;;;;;26.25;17.50;;;;;;;3.37;64.13;98318.91;2619725;54;20121;-67
2021/11/25 17:23:51;;;;;;;27.08;17.38;;;;;;;3.34;64.20;98321.00;2619934;54;20059;-68
2021/11/25 17:26:23;;;;;;;25.17;16.67;;;;;;;3.36;64.51;98317.28;2618862;47;20065;-68
2021/11/25 17:28:53;;;;;;;25.33;16.52;;;;;;;3.35;64.25;98331.31;2619034;47;20034;-68
2021/11/25 17:31:25;;;;;;;28.50;17.27;;;;;;;3.29;63.95;98326.72;2618653;54;20042;-68
2021/11/25 17:33:56;;;;;;;24.90;17.25;;;;;;;3.26;64.28;98324.41;2619424;54;20034;-68
2021/11/25 17:36:27;;;;;;;27.77;18.58;;;;;;;3.23;64.47;98322.13;2619440;54;20042;-69
2021/11/25 17:38:59;;;;;;;24.58;17.00;;;;;;;3.20;64.22;98327.66;2618101;54;20043;-66
2021/11/25 17:41:30;;;;;;;23.60;15.48;;;;;;;3.23;64.77;98337.81;2618748;54;20039;-67
2021/11/25 17:44:00;;;;;;;25.52;17.08;;;;;;;3.28;64.39;98340.75;2618247;47;20050;-68
2021/11/25 17:46:29;;;;;;;24.88;17.23;;;;;;;3.32;64.73;98347.31;2618869;54;20034;-68
2021/11/25 17:48:59;;;;;;;24.45;16.88;;;;;;;3.36;64.05;98348.63;2617925;47;20038;-68
2021/11/25 17:51:29;;;;;;;25.58;16.60;;;;;;;3.32;64.43;98354.31;2617992;54;20033;-68
2021/11/25 17:54:02;;;;;;;28.00;17.83;;;;;;;3.35;64.72;98348.78;2618671;54;20031;-68
2021/11/25 17:56:32;;;;;;;24.33;16.23;;;;;;;3.27;64.09;98349.56;2618932;47;20042;-68
2021/11/25 17:59:02;;;;;;;25.73;16.67;;;;;;;3.26;64.73;98341.88;2618793;54;20553;-66
2021/11/25 18:01:31;;;;;;;21.00;14.55;;;;;;;3.28;64.63;98345.16;2618298;54;20038;-67
2021/11/25 18:04:01;;;;;;;26.10;17.05;;;;;;;3.27;64.41;98346.16;2619125;39;20437;-67
2021/11/25 18:06:31;;;;;;;23.98;16.08;;;;;;;3.26;64.42;98349.72;2618760;54;20030;-67
2021/11/25 18:09:04;;;;;;;25.95;16.15;;;;;;;3.22;64.67;98346.59;2619231;54;20034;-68
2021/11/25 18:11:34;;;;;;;28.47;17.17;;;;;;;3.20;64.91;98345.94;2618591;47;20572;-69
2021/11/25 18:14:05;;;;;;;27.92;17.85;;;;;;;3.19;64.67;98345.13;2618743;54;20042;-68
2021/11/25 18:16:36;;;;;;;27.27;17.70;;;;;;;3.10;64.90;98347.84;2618215;47;20037;-68
2021/11/25 18:19:09;;;;;;;30.00;19.00;;;;;;;3.12;65.29;98356.34;2618684;54;20035;-69
2021/11/25 18:21:39;;;;;;;29.83;19.10;;;;;;;3.11;64.92;98355.53;2617992;51;20561;-69
2021/11/25 18:24:12;;;;;;;28.85;18.75;;;;;;;3.11;64.77;98352.94;2618175;47;20023;-68
2021/11/25 18:26:42;;;;;;;33.25;20.75;;;;;;;3.11;65.17;98350.31;2618764;54;20575;-69
2021/11/25 18:29:15;;;;;;;31.20;20.00;;;;;;;3.07;65.43;98359.44;2618880;31;20521;-69
2021/11/25 18:31:46;;;;;;;30.05;19.00;;;;;;;3.02;65.59;98347.81;2617911;47;20522;-68
2021/11/25 18:34:16;;;;;;;32.63;19.45;;;;;;;3.07;65.49;98345.56;2618636;54;20506;-68
2021/11/25 18:36:45;;;;;;;31.00;19.88;;;;;;;3.05;65.19;98344.88;2618566;54;20034;-68
2021/11/25 18:39:18;;;;;;;38.42;22.27;;;;;;;3.03;65.22;98349.47;2620076;39;20418;-70
2021/11/25 18:41:48;;;;;;;34.28;21.77;;;;;;;3.02;65.57;98343.44;2620253;54;20037;-70
2021/11/25 18:44:19;;;;;;;26.80;17.67;;;;;;;3.02;65.65;98350.41;2618047;47;20034;-69
2021/11/25 18:46:49;;;;;;;26.40;17.88;;;;;;;3.01;65.39;98349.59;2618551;54;20126;-68
2021/11/25 18:49:20;;;;;;;29.67;18.40;;;;;;;3.04;65.52;98346.69;2618493;54;20659;-69
2021/11/25 18:51:52;;;;;;;28.15;18.10;;;;;;;3.09;65.24;98344.41;2617816;54;20129;-69
2021/11/25 18:54:25;;;;;;;29.73;17.92;;;;;;;3.15;65.13;98348.22;2617824;47;20038;-69
2021/11/25 18:56:55;;;;;;;28.95;18.23;;;;;;;3.13;65.07;98345.75;2617788;47;20026;-69
2021/11/25 18:59:25;;;;;;;32.85;20.08;;;;;;;3.11;65.36;98345.09;2618155;47;20023;-69
2021/11/25 19:01:55;;;;;;;32.30;19.67;;;;;;;3.16;65.62;98339.41;2617632;47;20081;-68
2021/11/25 19:04:25;;;;;;;32.15;17.85;;;;;;;3.16;65.48;98342.00;2617972;47;20027;-68
2021/11/25 19:06:55;;;;;;;29.98;19.02;;;;;;;3.12;65.29;98335.47;2618559;54;20665;-70
2021/11/25 19:09:43;;;;;;;36.22;20.83;;;;;;;2.95;65.40;98338.00;2620834;54;20142;-68
2021/11/25 19:12:13;;;;;;;27.10;18.27;;;;;;;2.86;65.59;98332.91;2618538;54;20038;-68
2021/11/25 19:14:43;;;;;;;29.05;18.42;;;;;;;2.73;66.07;98331.53;2618459;47;20041;-67
2021/11/25 19:17:13;;;;;;;31.45;18.73;;;;;;;2.70;66.12;98334.44;2618705;54;20023;-68
2021/11/25 19:19:44;;;;;;;23.95;16.92;;;;;;;2.56;66.38;98332.38;2618543;54;20066;-68
2021/11/25 19:22:14;;;;;;;25.27;17.45;;;;;;;2.51;66.53;98320.75;2618271;47;20845;-69
2021/11/25 19:24:47;;;;;;;28.48;17.40;;;;;;;2.42;66.41;98332.94;2619057;39;20703;-69
2021/11/25 19:27:17;;;;;;;24.33;15.70;;;;;;;2.35;66.78;98334.50;2618978;54;20034;-69
2021/11/25 19:29:48;;;;;;;24.02;16.17;;;;;;;2.39;66.91;98330.63;2618978;54;20042;-71
2021/11/25 19:32:18;;;;;;;24.42;16.17;;;;;;;2.46;67.21;98335.09;2618795;54;20037;-69
2021/11/25 19:34:48;;;;;;;23.98;16.23;;;;;;;2.58;67.39;98327.03;2618743;54;20561;-69
2021/11/25 19:37:18;;;;;;;22.70;15.10;;;;;;;2.65;67.35;98318.44;2618728;54;20037;-69
2021/11/25 19:39:50;;;;;;;34.20;19.83;;;;;;;2.75;67.07;98322.72;2620366;54;20045;-70
2021/11/25 19:42:20;;;;;;;27.92;18.20;;;;;;;2.80;66.53;98308.22;2617678;54;20542;-69
2021/11/25 19:44:53;;;;;;;27.35;18.15;;;;;;;2.77;66.55;98303.28;2618837;54;20062;-70
2021/11/25 19:47:23;;;;;;;26.52;17.08;;;;;;;2.75;66.79;98292.22;2619935;54;20034;-69
2021/11/25 19:49:59;;;;;;;27.92;17.48;;;;;;;2.78;66.95;98294.50;2619039;54;20043;-70
2021/11/25 19:52:32;;;;;;;28.58;18.55;;;;;;;2.85;66.73;98292.09;2619431;47;20034;-69
2021/11/25 19:55:10;;;;;;;31.17;19.23;;;;;;;2.90;66.53;98292.44;2619269;54;20027;-70
2021/11/25 19:57:41;;;;;;;30.10;19.33;;;;;;;2.90;66.76;98292.44;2619026;54;20034;-69
2021/11/25 20:00:16;;;;;;;29.30;18.52;;;;;;;2.91;66.49;98294.09;2619097;47;20026;-68
2021/11/25 20:02:46;;;;;;;29.25;19.35;;;;;;;2.74;66.41;98301.03;2618511;54;20057;-70
2021/11/25 20:05:16;;;;;;;29.63;17.75;;;;;;;2.56;66.91;98297.63;2619514;47;20039;-70
2021/11/25 20:07:47;;;;;;;26.70;17.85;;;;;;;2.54;67.25;98310.84;2620054;54;20034;-68
2021/11/25 20:10:20;;;;;;;29.63;17.52;;;;;;;2.61;67.77;98301.44;2621278;39;20394;-70
2021/11/25 20:12:52;;;;;;;28.77;17.65;;;;;;;2.70;67.77;98304.91;2620160;54;20030;-69
2021/11/25 20:15:26;;;;;;;26.88;18.10;;;;;;;2.71;67.24;98303.94;2621205;39;20703;-69
2021/11/25 20:18:00;;;;;;;27.55;18.48;;;;;;;2.71;67.33;98304.75;2619792;47;20030;-70
2021/11/25 20:20:30;;;;;;;27.13;17.37;;;;;;;2.68;67.01;98301.63;2619507;54;20253;-70
2021/11/25 20:23:07;;;;;;;26.35;17.95;;;;;;;2.73;67.21;98291.53;2620315;54;20302;-70
2021/11/25 20:25:40;;;;;;;30.27;18.25;;;;;;;2.83;67.22;98294.84;2620179;54;20022;-69
2021/11/25 20:28:10;;;;;;;25.17;16.85;;;;;;;2.93;66.55;98292.13;2619030;54;20066;-69
2021/11/25 20:30:41;;;;;;;33.90;18.67;;;;;;;2.89;66.39;98290.78;2619316;54;20042;-69
2021/11/25 20:33:16;;;;;;;30.98;19.08;;;;;;;2.89;66.82;98290.78;2620319;54;20082;-70
2021/11/25 20:35:48;;;;;;;29.52;17.90;;;;;;;2.95;66.77;98298.00;2623135;54;20042;-70
2021/11/25 20:38:20;;;;;;;29.20;18.48;;;;;;;2.92;66.76;98296.53;2620775;54;20077;-70
2021/11/25 20:40:52;;;;;;;28.48;18.45;;;;;;;2.91;66.91;98291.47;2620126;54;20038;-70
2021/11/25 20:43:22;;;;;;;25.52;16.65;;;;;;;2.92;67.23;98298.31;2618485;47;20038;-70
2021/11/25 20:45:55;;;;;;;27.65;16.58;;;;;;;2.90;67.00;98301.09;2618517;54;20034;-68
2021/11/25 20:48:25;;;;;;;27.45;18.25;;;;;;;2.89;67.00;98296.84;2619203;39;20525;-70
2021/11/25 20:50:56;;;;;;;29.30;18.27;;;;;;;2.88;66.98;98289.97;2618270;54;20038;-68
2021/11/25 20:53:26;;;;;;;25.38;17.02;;;;;;;2.89;66.85;98281.16;2618211;54;20034;-68
2021/11/25 20:55:59;;;;;;;26.50;17.17;;;;;;;2.94;66.71;98291.97;2618526;47;20062;-69
2021/11/25 20:58:29;;;;;;;26.48;17.50;;;;;;;2.94;66.82;98291.97;2618982;54;20034;-69
2021/11/25 21:00:59;;;;;;;27.55;17.23;;;;;;;2.73;66.28;98292.38;2618471;47;20027;-68